This is the latest recevied weather packets stored in our database for station/object KG5MMT-12. If no packets are shown the sender has not sent any weather packets the latest 10 day(s).
| Time | Temp. | Humidity | Pressure | Rain* | Wind** | Luminosity | Snow |
|---|---|---|---|---|---|---|---|
| 1787947157 | 17.78° C | 81% | 0 hPa | 1.78 mm | - | - | - |
| 1787946857 | 19.44° C | 77% | 0 hPa | 1.02 mm | - | - | - |
| 1787946557 | 20.56° C | 62% | 0 hPa | 0.25 mm | - | - | - |
| 1787946257 | 21.67° C | 53% | 0 hPa | 0 mm | - | - | - |
| 1787945957 | 22.22° C | 50% | 0 hPa | 0 mm | - | - | - |
| 1787945657 | 22.78° C | 57% | 0 hPa | 0 mm | - | - | - |
| 1787945357 | 23.33° C | 58% | 0 hPa | 0 mm | - | - | - |
| 1787945057 | 25° C | 54% | 0 hPa | 0 mm | - | - | - |
| 1787944757 | 26.11° C | 46% | 0 hPa | 0 mm | - | - | - |
| 1787944457 | 27.22° C | 35% | 0 hPa | 0 mm | - | - | - |
| 1787944157 | 27.22° C | 34% | 0 hPa | 0 mm | - | - | - |
| 1787943857 | 27.78° C | 32% | 0 hPa | 0 mm | - | - | - |
| 1787943557 | 27.78° C | 33% | 0 hPa | 0 mm | - | - | - |
| 1787943257 | 28.33° C | 30% | 0 hPa | 0 mm | - | - | - |
| 1787942957 | 28.33° C | 29% | 0 hPa | 0 mm | - | - | - |
| 1787942657 | 28.33° C | 29% | 0 hPa | 0 mm | - | - | - |
| 1787942357 | 28.33° C | 30% | 0 hPa | 0 mm | - | - | - |
| 1787942057 | 28.33° C | 30% | 0 hPa | 0 mm | - | - | - |
| 1787941757 | 27.78° C | 32% | 0 hPa | 0 mm | - | - | - |
| 1787941457 | 27.78° C | 29% | 0 hPa | 0 mm | - | - | - |
| 1787941159 | 27.78° C | 31% | 0 hPa | 0 mm | - | - | - |
| 1787940857 | 28.33° C | 29% | 0 hPa | 0 mm | - | - | - |
| 1787940557 | 28.33° C | 29% | 0 hPa | 0 mm | - | - | - |
| 1787940257 | 28.33° C | 28% | 0 hPa | 0 mm | - | - | - |
| 1787939957 | 28.33° C | 27% | 0 hPa | 0 mm | - | - | - |
* Rain latest hour (hover to see other rain measurements)
** Current wind speed in m/s (hover to see current wind gust speed)